createdAt,value
2018-11-25T00:03:05.749Z,3.20
2018-11-25T00:08:08.291Z,3.40
2018-11-25T00:13:10.821Z,3.50
2018-11-25T00:18:13.346Z,3.40
2018-11-25T00:23:15.870Z,3.40
2018-11-25T00:28:19.189Z,3.30
2018-11-25T00:33:21.734Z,3.00
2018-11-25T00:38:24.268Z,2.70
2018-11-25T00:43:26.873Z,2.50
2018-11-25T00:48:29.430Z,2.60
2018-11-25T00:53:31.949Z,2.60
2018-11-25T00:58:34.473Z,2.70
2018-11-25T01:03:37.014Z,2.70
2018-11-25T01:08:39.541Z,2.70
2018-11-25T01:13:42.081Z,2.80
2018-11-25T01:18:44.591Z,3.00
2018-11-25T01:23:47.114Z,3.00
2018-11-25T01:28:49.675Z,3.10
2018-11-25T01:33:52.265Z,3.00
2018-11-25T01:38:54.788Z,2.90
2018-11-25T01:43:57.323Z,2.80
2018-11-25T01:48:59.953Z,2.70
2018-11-25T01:54:02.492Z,2.50
2018-11-25T01:59:05.065Z,2.10
2018-11-25T02:04:07.622Z,1.70
2018-11-25T02:09:10.149Z,1.40
2018-11-25T02:14:12.699Z,1.20
2018-11-25T02:19:15.227Z,1.00
2018-11-25T02:24:17.769Z,0.90
2018-11-25T02:29:20.300Z,0.80
2018-11-25T02:34:22.800Z,0.80
2018-11-25T02:39:25.329Z,0.70
2018-11-25T02:44:27.890Z,0.80
2018-11-25T02:49:30.417Z,0.70
2018-11-25T02:59:35.393Z,0.50
2018-11-25T03:04:37.949Z,0.40
2018-11-25T03:09:40.497Z,0.50
2018-11-25T03:14:43.035Z,0.40
2018-11-25T03:19:45.576Z,0.30
2018-11-25T03:24:48.106Z,0.40
2018-11-25T03:29:50.612Z,0.40
2018-11-25T03:34:53.145Z,0.20
2018-11-25T03:39:55.698Z,0.20
2018-11-25T03:44:58.230Z,0.10
2018-11-25T03:50:00.802Z,0.20
2018-11-25T03:55:04.001Z,0.20
2018-11-25T04:00:12.694Z,0.30
2018-11-25T04:05:15.884Z,0.40
2018-11-25T04:10:18.724Z,0.50
2018-11-25T04:15:21.277Z,0.50
2018-11-25T04:20:23.793Z,0.60
2018-11-25T04:25:26.337Z,0.50
2018-11-25T04:30:28.873Z,0.50
2018-11-25T04:35:31.401Z,0.50
2018-11-25T04:40:33.921Z,0.60
2018-11-25T04:45:36.464Z,0.70
2018-11-25T04:50:39.012Z,1.00
2018-11-25T04:55:41.512Z,1.30
2018-11-25T05:00:44.012Z,1.50
2018-11-25T05:05:46.557Z,1.40
2018-11-25T05:10:49.102Z,1.50
2018-11-25T05:15:51.632Z,1.20
2018-11-25T05:20:54.176Z,0.90
2018-11-25T05:25:56.697Z,0.60
2018-11-25T05:30:59.244Z,0.40
2018-11-25T05:36:01.777Z,0.10
2018-11-25T05:41:04.372Z,0.00
2018-11-25T05:46:06.912Z,-0.10
2018-11-25T05:51:09.443Z,-0.20
2018-11-25T05:56:11.976Z,-0.30
2018-11-25T06:01:14.517Z,-0.50
2018-11-25T06:06:17.065Z,-0.50
2018-11-25T06:11:19.606Z,-0.40
2018-11-25T06:16:22.124Z,-0.10
2018-11-25T06:21:24.647Z,0.00
2018-11-25T06:26:27.218Z,0.10
2018-11-25T06:31:29.737Z,0.10
2018-11-25T06:36:32.264Z,0.20
2018-11-25T06:41:34.825Z,0.20
2018-11-25T06:46:37.346Z,0.20
2018-11-25T06:51:40.161Z,0.30
2018-11-25T06:56:42.689Z,0.30
2018-11-25T07:01:45.205Z,0.30
2018-11-25T07:06:48.621Z,0.30
2018-11-25T07:11:51.161Z,0.20
2018-11-25T07:16:53.681Z,0.20
2018-11-25T07:21:56.209Z,0.20
2018-11-25T07:26:58.741Z,0.10
2018-11-25T07:32:01.264Z,-0.10
2018-11-25T07:37:03.905Z,-0.20
2018-11-25T07:42:06.450Z,-0.20
2018-11-25T07:47:08.969Z,0.00
2018-11-25T07:52:11.493Z,0.20
2018-11-25T07:57:14.021Z,0.60
2018-11-25T08:02:16.568Z,1.20
2018-11-25T08:07:19.169Z,1.90
2018-11-25T08:12:21.716Z,2.90
2018-11-25T08:17:24.262Z,3.80
2018-11-25T08:22:26.836Z,5.20
2018-11-25T08:27:29.472Z,6.30
2018-11-25T08:32:32.087Z,7.60
2018-11-25T08:37:34.619Z,9.20
2018-11-25T08:42:37.202Z,10.40
2018-11-25T08:47:39.745Z,10.60
2018-11-25T08:52:43.161Z,9.70
2018-11-25T08:57:45.722Z,10.70
2018-11-25T09:02:49.010Z,11.80
2018-11-25T09:07:51.580Z,11.90
2018-11-25T09:12:56.339Z,11.40
2018-11-25T09:17:58.119Z,13.00
2018-11-25T09:23:00.649Z,13.10
2018-11-25T09:28:03.496Z,12.50
2018-11-25T09:33:05.932Z,13.70
2018-11-25T09:38:08.491Z,12.90
2018-11-25T09:43:11.100Z,13.10
2018-11-25T09:48:13.662Z,14.00
2018-11-25T09:53:16.204Z,14.10
2018-11-25T09:58:25.266Z,14.30
2018-11-25T10:03:21.542Z,13.60
2018-11-25T10:08:24.131Z,14.50
2018-11-25T10:13:26.729Z,13.80
2018-11-25T10:18:29.300Z,15.00
2018-11-25T10:23:31.860Z,15.40
2018-11-25T10:28:35.180Z,16.80
2018-11-25T10:33:37.745Z,17.90
2018-11-25T10:38:40.325Z,16.50
2018-11-25T10:43:42.865Z,18.10
2018-11-25T10:48:45.409Z,16.80
2018-11-25T10:53:48.959Z,18.80
2018-11-25T10:58:51.485Z,18.90
2018-11-25T11:03:55.556Z,21.50
2018-11-25T11:08:58.114Z,20.20
2018-11-25T11:14:00.648Z,19.50
2018-11-25T11:19:03.236Z,17.90
2018-11-25T11:24:05.810Z,18.00
2018-11-25T11:29:08.629Z,19.30
2018-11-25T11:34:11.158Z,19.90
2018-11-25T11:39:13.719Z,19.10
2018-11-25T11:44:17.002Z,19.30
2018-11-25T11:49:19.556Z,19.90
2018-11-25T11:54:22.084Z,19.80
2018-11-25T11:59:24.645Z,18.70
2018-11-25T12:04:27.266Z,18.20
2018-11-25T12:09:29.805Z,18.10
2018-11-25T12:14:32.377Z,17.70
2018-11-25T12:19:34.981Z,17.70
2018-11-25T12:24:37.559Z,18.00
2018-11-25T12:29:40.088Z,16.90
2018-11-25T12:34:42.673Z,16.00
2018-11-25T12:39:45.250Z,15.40
2018-11-25T12:44:47.822Z,15.50
2018-11-25T12:49:50.401Z,15.70
2018-11-25T12:54:52.975Z,16.50
2018-11-25T12:59:55.529Z,17.70
2018-11-25T13:04:58.049Z,18.30
2018-11-25T13:10:00.650Z,17.30
2018-11-25T13:15:03.272Z,16.50
2018-11-25T13:20:12.227Z,16.40
2018-11-25T13:25:15.785Z,17.60
2018-11-25T13:30:20.767Z,19.20
2018-11-25T13:35:24.016Z,19.20
2018-11-25T13:40:26.624Z,19.50
2018-11-25T13:45:29.281Z,19.40
2018-11-25T13:50:31.886Z,18.40
2018-11-25T13:55:34.479Z,16.30
2018-11-25T14:00:40.056Z,15.10
2018-11-25T14:05:42.601Z,14.70
2018-11-25T14:10:45.164Z,13.80
2018-11-25T14:15:48.388Z,12.60
2018-11-25T14:20:50.941Z,14.20
2018-11-25T14:25:54.222Z,16.10
2018-11-25T14:30:56.793Z,15.60
2018-11-25T14:35:59.337Z,13.10
2018-11-25T14:41:01.905Z,11.10
2018-11-25T14:46:04.683Z,9.70
2018-11-25T14:51:07.325Z,8.90
2018-11-25T14:56:09.861Z,8.50
2018-11-25T15:01:12.461Z,7.60
2018-11-25T15:06:15.054Z,7.00
2018-11-25T15:11:17.649Z,6.40
2018-11-25T15:16:20.236Z,5.60
2018-11-25T15:21:22.791Z,5.30
2018-11-25T15:26:25.464Z,5.20
2018-11-25T15:31:28.033Z,5.20
2018-11-25T15:36:30.616Z,5.30
2018-11-25T15:41:33.180Z,5.40
2018-11-25T15:46:35.762Z,5.50
2018-11-25T15:51:38.308Z,5.50
2018-11-25T15:56:40.944Z,5.50
2018-11-25T16:01:43.581Z,5.50
2018-11-25T16:06:46.124Z,5.50
2018-11-25T16:11:48.743Z,5.50
2018-11-25T16:16:51.372Z,5.60
2018-11-25T16:21:53.976Z,5.70
2018-11-25T16:26:56.534Z,5.70
2018-11-25T16:31:59.077Z,5.70
2018-11-25T16:37:01.663Z,5.70
2018-11-25T16:42:04.625Z,5.60
2018-11-25T16:47:07.302Z,5.70
2018-11-25T16:52:09.957Z,5.80
2018-11-25T16:57:12.620Z,5.80
2018-11-25T17:02:15.226Z,5.80
2018-11-25T17:07:18.466Z,5.80
2018-11-25T17:12:21.013Z,2.80
2018-11-25T17:17:23.619Z,5.70
2018-11-25T17:22:26.192Z,5.90
2018-11-25T17:27:28.742Z,5.90
2018-11-25T17:32:31.330Z,5.90
2018-11-25T17:37:33.965Z,5.90
2018-11-25T17:42:36.826Z,5.90
2018-11-25T17:47:39.481Z,5.80
2018-11-25T17:52:42.112Z,5.90
2018-11-25T17:57:44.747Z,5.90
2018-11-25T18:02:47.333Z,5.90
2018-11-25T18:07:49.902Z,5.90
2018-11-25T18:12:52.584Z,5.90
2018-11-25T18:18:01.054Z,5.90
2018-11-25T18:23:03.682Z,5.80
2018-11-25T18:28:06.889Z,5.70
2018-11-25T18:33:09.449Z,5.70
2018-11-25T18:38:14.000Z,5.70
2018-11-25T18:43:16.549Z,5.70
2018-11-25T18:48:19.188Z,5.60
2018-11-25T18:53:21.728Z,5.60
2018-11-25T18:58:26.233Z,5.50
2018-11-25T19:03:28.777Z,5.50
2018-11-25T19:08:31.329Z,5.50
2018-11-25T19:13:34.158Z,5.40
2018-11-25T19:18:37.724Z,5.50
2018-11-25T19:23:40.308Z,5.40
2018-11-25T19:28:42.867Z,5.40
2018-11-25T19:33:45.444Z,5.30
2018-11-25T19:38:48.041Z,9.20
2018-11-25T19:43:50.664Z,5.30
2018-11-25T19:54:05.525Z,5.20
2018-11-25T19:59:08.120Z,5.20
2018-11-25T20:04:10.782Z,5.20
2018-11-25T20:09:13.408Z,5.30
2018-11-25T20:14:15.966Z,5.30
2018-11-25T20:19:18.555Z,5.30
2018-11-25T20:24:21.491Z,5.40
2018-11-25T20:29:24.083Z,5.40
2018-11-25T20:34:26.661Z,5.40
2018-11-25T20:39:29.573Z,5.40
2018-11-25T20:44:32.197Z,5.50
2018-11-25T20:49:35.051Z,5.40
2018-11-25T20:54:37.624Z,5.40
2018-11-25T20:59:40.634Z,5.40
2018-11-25T21:04:43.222Z,5.30
2018-11-25T21:09:45.760Z,5.30
2018-11-25T21:14:48.432Z,5.30
2018-11-25T21:19:51.042Z,5.20
2018-11-25T21:24:53.645Z,5.20
2018-11-25T21:29:56.193Z,5.10
2018-11-25T21:34:58.997Z,5.10
2018-11-25T21:40:01.690Z,5.80
2018-11-25T21:45:04.673Z,5.00
2018-11-25T21:50:11.540Z,5.00
2018-11-25T21:55:15.434Z,9.20
2018-11-25T22:00:19.824Z,4.90
2018-11-25T22:05:24.863Z,4.90
2018-11-25T22:10:24.931Z,4.80
2018-11-25T22:15:27.485Z,4.90
2018-11-25T22:20:30.018Z,4.80
2018-11-25T22:25:32.572Z,4.80
2018-11-25T22:30:35.128Z,4.80
2018-11-25T22:35:37.683Z,4.80
2018-11-25T22:40:40.271Z,4.80
2018-11-25T22:45:42.994Z,2.20
2018-11-25T22:50:45.532Z,4.80
2018-11-25T22:55:48.084Z,4.80
2018-11-25T23:00:52.613Z,4.70
2018-11-25T23:07:07.429Z,4.70
2018-11-25T23:12:09.961Z,4.60
2018-11-25T23:17:12.521Z,4.50
2018-11-25T23:22:15.078Z,4.50
2018-11-25T23:27:17.656Z,4.50
2018-11-25T23:32:20.278Z,5.00
2018-11-25T23:37:22.821Z,4.50
2018-11-25T23:42:25.345Z,4.50
2018-11-25T23:47:27.882Z,4.50
2018-11-25T23:52:30.506Z,4.40
2018-11-25T23:57:34.519Z,4.40
